Time;durP1;ratioP1;P1;durP2;ratioP2;P2;SDS_P1;SDS_P2;PMS_P1;PMS_P2;Temp;Humidity;BMP_temperature;BMP_pressure;BME280_temperature;BME280_humidity;BME280_pressure;Samples;Min_cycle;Max_cycle;Signal;HPM_P1;HPM_P2
2023/09/11 00:01:31;;;;;;;0.00;0.00;;;;;;;18.38;99.87;100508.28;4980423;28;20265;-82
2023/09/11 00:03:57;;;;;;;0.10;0.10;;;;;;;18.33;99.39;100500.25;4980075;28;20214;-82
2023/09/11 00:06:22;;;;;;;0.03;0.03;;;;;;;18.30;99.63;100495.47;4980543;28;20212;-83
2023/09/11 00:08:48;;;;;;;0.00;0.00;;;;;;;18.35;100.00;100495.16;4979517;28;20206;-82
2023/09/11 00:11:13;;;;;;;0.93;0.93;;;;;;;18.46;100.00;100500.94;4978947;28;20185;-82
2023/09/11 00:13:39;;;;;;;0.00;0.00;;;;;;;18.62;99.91;100496.13;4980617;28;20240;-83
2023/09/11 00:16:04;;;;;;;0.00;0.00;;;;;;;18.72;100.00;100501.13;4979588;28;20188;-83
2023/09/11 00:18:29;;;;;;;0.00;0.00;;;;;;;18.77;100.00;100493.69;4979976;28;20181;-83
2023/09/11 00:20:55;;;;;;;0.00;0.00;;;;;;;18.76;100.00;100492.88;4971404;28;20209;-83
2023/09/11 00:23:20;;;;;;;0.10;0.10;;;;;;;18.80;100.00;100493.75;4980365;28;20212;-83
2023/09/11 00:25:45;;;;;;;0.00;0.00;;;;;;;18.90;100.00;100489.59;4979314;28;20197;-82
2023/09/11 00:28:11;;;;;;;0.00;0.00;;;;;;;18.91;100.00;100496.72;4979757;28;20221;-83
2023/09/11 00:30:37;;;;;;;0.00;0.00;;;;;;;18.95;100.00;100481.81;4980687;28;20190;-83
2023/09/11 00:33:02;;;;;;;0.00;0.00;;;;;;;19.01;99.99;100479.53;4980428;28;20202;-83
2023/09/11 00:35:28;;;;;;;0.00;0.00;;;;;;;18.95;97.95;100467.97;4980355;28;20254;-83
2023/09/11 00:37:53;;;;;;;0.00;0.00;;;;;;;18.98;96.05;100464.44;4977800;28;20189;-82
2023/09/11 00:40:19;;;;;;;0.17;0.17;;;;;;;18.89;95.35;100460.31;4973056;28;20174;-82
2023/09/11 00:42:44;;;;;;;0.37;0.37;;;;;;;18.71;95.48;100444.16;4973060;28;20693;-82
2023/09/11 00:45:11;;;;;;;0.87;0.87;;;;;;;18.56;96.00;100441.44;4973080;28;20185;-82
2023/09/11 00:47:38;;;;;;;0.00;0.00;;;;;;;18.50;97.05;100449.22;4972787;28;20205;-82
2023/09/11 00:50:04;;;;;;;0.00;0.00;;;;;;;18.49;97.73;100453.16;4972701;28;20207;-81
2023/09/11 00:52:30;;;;;;;0.20;0.20;;;;;;;18.40;98.03;100453.41;4972489;28;20194;-82
2023/09/11 00:54:56;;;;;;;0.00;0.00;;;;;;;18.35;98.77;100450.91;4969221;28;20777;-82
2023/09/11 00:57:22;;;;;;;0.00;0.00;;;;;;;18.32;99.31;100457.16;4977519;28;20170;-83
2023/09/11 00:59:51;;;;;;;1.37;0.53;;;;;;;18.23;99.74;100462.13;4977316;28;20189;-83
2023/09/11 01:02:17;;;;;;;0.20;0.20;;;;;;;18.09;100.00;100459.06;4979400;28;20215;-82
2023/09/11 01:04:44;;;;;;;0.00;0.00;;;;;;;18.01;100.00;100455.31;4978376;28;20206;-82
2023/09/11 01:07:10;;;;;;;0.20;0.20;;;;;;;18.06;100.00;100460.56;4978739;28;20174;-82
2023/09/11 01:09:35;;;;;;;0.10;0.10;;;;;;;18.04;100.00;100456.56;4978206;28;20210;-83
2023/09/11 01:12:01;;;;;;;0.20;0.20;;;;;;;17.87;100.00;100451.44;4979064;28;20205;-82
2023/09/11 01:14:27;;;;;;;0.07;0.07;;;;;;;17.75;100.00;100447.63;4976985;28;20288;-83
2023/09/11 01:17:05;;;;;;;0.00;0.00;;;;;;;17.80;100.00;100444.59;4977315;28;20177;-83
2023/09/11 01:19:52;;;;;;;0.00;0.00;;;;;;;17.89;100.00;100443.59;4976778;28;20639;-82
2023/09/11 01:22:47;;;;;;;0.00;0.00;;;;;;;17.90;100.00;100445.19;4977788;28;20197;-82
2023/09/11 01:25:35;;;;;;;0.00;0.00;;;;;;;17.93;100.00;100442.50;4987470;28;20186;-83
2023/09/11 01:28:26;;;;;;;0.00;0.00;;;;;;;17.97;100.00;100440.63;4987048;28;20721;-83
2023/09/11 01:30:54;;;;;;;0.00;0.00;;;;;;;17.89;100.00;100449.09;4977521;28;20182;-83
2023/09/11 01:33:20;;;;;;;0.00;0.00;;;;;;;17.81;100.00;100445.41;4976157;28;20202;-82
2023/09/11 01:35:45;;;;;;;0.80;0.80;;;;;;;17.67;100.00;100445.84;4977711;28;20545;-82
2023/09/11 01:38:11;;;;;;;0.00;0.00;;;;;;;17.57;100.00;100440.84;4976729;28;20170;-82
2023/09/11 01:40:40;;;;;;;0.00;0.00;;;;;;;17.65;100.00;100442.63;4976096;28;20197;-82
2023/09/11 01:43:08;;;;;;;0.00;0.00;;;;;;;17.69;100.00;100453.78;4976563;28;20206;-82
2023/09/11 01:45:36;;;;;;;0.00;0.00;;;;;;;17.73;100.00;100457.44;4976393;28;20193;-83
2023/09/11 01:48:03;;;;;;;0.00;0.00;;;;;;;17.75;100.00;100453.16;4975971;28;20634;-83
2023/09/11 01:50:32;;;;;;;0.00;0.00;;;;;;;17.75;100.00;100455.91;4976197;28;20201;-83
2023/09/11 01:52:58;;;;;;;0.00;0.00;;;;;;;17.80;100.00;100443.81;4976435;28;20249;-83
2023/09/11 01:55:23;;;;;;;0.77;0.77;;;;;;;17.88;100.00;100453.03;4976273;28;20657;-83
2023/09/11 01:57:49;;;;;;;0.00;0.00;;;;;;;17.89;100.00;100443.59;4976177;28;20201;-83
2023/09/11 02:00:14;;;;;;;0.00;0.00;;;;;;;17.88;100.00;100442.78;4983993;28;20185;-83
2023/09/11 02:02:40;;;;;;;0.00;0.00;;;;;;;17.91;100.00;100441.25;4976061;28;20607;-83
2023/09/11 02:05:06;;;;;;;0.07;0.07;;;;;;;17.99;100.00;100438.28;4976023;28;20674;-83
2023/09/11 02:07:31;;;;;;;0.00;0.00;;;;;;;18.07;100.00;100444.78;4977307;28;20237;-82
2023/09/11 02:09:56;;;;;;;0.40;0.40;;;;;;;18.08;100.00;100443.59;4975274;28;20185;-83
2023/09/11 02:12:25;;;;;;;0.13;0.13;;;;;;;18.06;100.00;100437.63;4975392;28;20185;-83
2023/09/11 02:14:50;;;;;;;0.00;0.00;;;;;;;18.00;100.00;100431.59;4975755;28;20647;-82
2023/09/11 02:17:15;;;;;;;0.00;0.00;;;;;;;17.96;100.00;100422.44;4978991;28;20186;-82
2023/09/11 02:19:42;;;;;;;0.00;0.00;;;;;;;17.82;100.00;100416.59;4979289;28;20182;-83
2023/09/11 02:22:07;;;;;;;0.00;0.00;;;;;;;17.87;100.00;100421.84;4979282;28;20214;-83
2023/09/11 02:24:32;;;;;;;0.00;0.00;;;;;;;17.99;100.00;100424.47;4980976;28;20204;-82
2023/09/11 02:26:58;;;;;;;0.00;0.00;;;;;;;17.99;100.00;100429.22;4979094;28;20188;-83
2023/09/11 02:29:23;;;;;;;0.20;0.20;;;;;;;18.05;100.00;100434.06;4979321;28;20190;-83
2023/09/11 02:31:48;;;;;;;0.00;0.00;;;;;;;18.09;100.00;100423.91;4980362;28;20177;-83
2023/09/11 02:34:13;;;;;;;0.00;0.00;;;;;;;18.07;100.00;100428.19;4980308;28;20592;-83
2023/09/11 02:36:39;;;;;;;0.00;0.00;;;;;;;18.06;100.00;100426.56;4978707;28;20185;-83
2023/09/11 02:39:04;;;;;;;0.00;0.00;;;;;;;18.08;100.00;100418.72;4979959;28;20241;-82
2023/09/11 02:41:30;;;;;;;0.00;0.00;;;;;;;18.11;100.00;100416.06;4978886;28;20181;-82
2023/09/11 02:43:55;;;;;;;0.00;0.00;;;;;;;18.16;100.00;100408.63;4972232;28;20205;-82
2023/09/11 02:46:21;;;;;;;0.00;0.00;;;;;;;18.10;99.51;100406.16;4979983;28;20225;-83
2023/09/11 02:48:48;;;;;;;0.00;0.00;;;;;;;18.08;99.25;100407.66;4986101;28;20208;-83
2023/09/11 02:51:14;;;;;;;0.00;0.00;;;;;;;18.10;99.10;100405.34;4979916;28;20193;-83
2023/09/11 02:53:39;;;;;;;0.00;0.00;;;;;;;18.11;98.57;100406.97;4977924;28;20213;-83
2023/09/11 02:56:05;;;;;;;0.00;0.00;;;;;;;18.09;97.80;100399.03;4980356;28;20188;-83
2023/09/11 02:58:30;;;;;;;0.20;0.20;;;;;;;17.90;97.23;100384.38;4977704;28;20658;-82
2023/09/11 03:01:03;;;;;;;0.00;0.00;;;;;;;17.95;97.37;100393.19;4978070;28;20209;-83
2023/09/11 03:03:28;;;;;;;0.00;0.00;;;;;;;17.94;97.92;100397.13;4978429;28;20209;-83
2023/09/11 03:05:58;;;;;;;0.00;0.00;;;;;;;17.94;97.95;100396.28;4978131;28;20544;-83
2023/09/11 03:08:24;;;;;;;0.30;0.30;;;;;;;17.75;97.78;100381.28;4977852;28;20325;-83
2023/09/11 03:10:49;;;;;;;0.00;0.00;;;;;;;17.61;98.29;100378.19;4979339;28;20224;-82
2023/09/11 03:13:15;;;;;;;0.00;0.00;;;;;;;17.48;99.20;100385.78;4975354;28;20561;-82
2023/09/11 03:15:42;;;;;;;0.00;0.00;;;;;;;17.58;100.00;100398.25;4976561;28;20185;-82
2023/09/11 03:18:08;;;;;;;0.00;0.00;;;;;;;17.57;100.00;100399.41;4975245;28;20170;-82
2023/09/11 03:20:33;;;;;;;0.00;0.00;;;;;;;17.56;100.00;100397.81;4976606;28;20178;-83
2023/09/11 03:22:59;;;;;;;1.70;0.50;;;;;;;17.58;100.00;100402.97;4975377;28;20210;-82
2023/09/11 03:25:26;;;;;;;0.00;0.00;;;;;;;17.45;100.00;100386.50;4974958;28;20692;-82
2023/09/11 03:27:51;;;;;;;0.00;0.00;;;;;;;17.37;100.00;100395.00;4973821;28;20214;-82
2023/09/11 03:30:17;;;;;;;0.93;0.93;;;;;;;17.36;100.00;100394.19;4974663;28;20548;-83
2023/09/11 03:32:42;;;;;;;0.33;0.33;;;;;;;17.37;100.00;100392.25;4974484;28;20205;-81
2023/09/11 03:35:08;;;;;;;0.10;0.10;;;;;;;17.22;100.00;100391.91;4975883;28;20182;-82
2023/09/11 03:37:33;;;;;;;2.20;2.10;;;;;;;17.23;100.00;100393.50;4974402;28;20721;-82
2023/09/11 03:39:59;;;;;;;0.00;0.00;;;;;;;17.25;100.00;100395.91;4976129;28;20178;-82
2023/09/11 03:42:24;;;;;;;0.00;0.00;;;;;;;17.23;100.00;100389.94;4975706;28;20173;-82
2023/09/11 03:44:50;;;;;;;0.00;0.00;;;;;;;17.22;100.00;100386.38;4974552;28;20887;-82
2023/09/11 03:47:15;;;;;;;0.00;0.00;;;;;;;17.21;100.00;100386.69;4974674;28;20181;-82
2023/09/11 03:49:40;;;;;;;0.17;0.03;;;;;;;17.16;100.00;100381.47;4974174;28;20271;-82
2023/09/11 03:52:06;;;;;;;0.00;0.00;;;;;;;17.17;100.00;100381.09;4975473;28;20208;-82
2023/09/11 03:54:31;;;;;;;0.10;0.10;;;;;;;17.18;100.00;100381.91;4974238;28;20253;-82
2023/09/11 03:56:56;;;;;;;0.60;0.60;;;;;;;17.18;100.00;100377.19;4974034;28;20189;-82
2023/09/11 03:59:22;;;;;;;0.73;0.73;;;;;;;17.17;100.00;100370.06;4974871;28;20181;-82
2023/09/11 04:01:47;;;;;;;0.00;0.00;;;;;;;17.12;100.00;100375.84;4973834;28;20185;-82
2023/09/11 04:04:12;;;;;;;0.00;0.00;;;;;;;17.13;100.00;100376.66;4974902;28;20220;-82
2023/09/11 04:06:38;;;;;;;0.27;0.27;;;;;;;17.12;100.00;100375.06;4974858;28;20181;-82
2023/09/11 04:09:05;;;;;;;0.00;0.00;;;;;;;17.01;100.00;100363.75;4974922;28;20197;-83
2023/09/11 04:11:31;;;;;;;0.20;0.20;;;;;;;16.98;100.00;100360.91;4976335;28;20552;-82
2023/09/11 04:13:56;;;;;;;0.37;0.37;;;;;;;16.95;100.00;100362.41;4977369;28;20210;-83
2023/09/11 04:16:22;;;;;;;0.00;0.00;;;;;;;16.88;100.00;100362.22;4976314;28;20294;-82
2023/09/11 04:18:47;;;;;;;0.77;0.67;;;;;;;16.82;100.00;100363.66;4978041;28;20185;-83
2023/09/11 04:21:12;;;;;;;0.00;0.00;;;;;;;16.84;100.00;100369.63;4976309;28;20185;-82
2023/09/11 04:23:38;;;;;;;0.00;0.00;;;;;;;16.96;100.00;100377.81;4975845;28;20706;-82
2023/09/11 04:26:03;;;;;;;0.07;0.07;;;;;;;16.90;100.00;100368.19;4977626;28;20552;-82
2023/09/11 04:28:29;;;;;;;0.00;0.00;;;;;;;16.90;100.00;100376.47;4975849;28;20682;-83
2023/09/11 04:30:54;;;;;;;0.00;0.00;;;;;;;16.86;100.00;100372.81;4975493;28;20200;-83
2023/09/11 04:33:20;;;;;;;0.00;0.00;;;;;;;16.88;100.00;100373.28;4976076;28;20198;-82
2023/09/11 04:35:45;;;;;;;0.00;0.00;;;;;;;16.92;100.00;100376.91;4983521;28;20189;-83
2023/09/11 04:38:12;;;;;;;0.23;0.23;;;;;;;16.81;100.00;100378.63;4975380;28;20185;-82
2023/09/11 04:40:38;;;;;;;0.20;0.20;;;;;;;16.74;100.00;100372.91;4976428;28;20174;-83
2023/09/11 04:43:04;;;;;;;0.00;0.00;;;;;;;16.74;100.00;100370.16;4975316;28;20682;-83
2023/09/11 04:45:29;;;;;;;0.00;0.00;;;;;;;16.73;100.00;100374.84;4977072;28;20178;-83
2023/09/11 04:47:55;;;;;;;0.00;0.00;;;;;;;16.77;100.00;100377.69;4975015;28;20202;-82
2023/09/11 04:50:20;;;;;;;0.00;0.00;;;;;;;16.77;100.00;100372.19;4983160;28;20662;-83
2023/09/11 04:52:45;;;;;;;0.00;0.00;;;;;;;16.81;100.00;100373.91;4974633;28;20213;-83
2023/09/11 04:55:11;;;;;;;0.00;0.00;;;;;;;16.91;100.00;100364.28;4975528;28;20549;-82
2023/09/11 04:57:36;;;;;;;0.00;0.00;;;;;;;16.89;100.00;100369.34;4975293;28;20698;-82
2023/09/11 05:00:09;;;;;;;0.10;0.10;;;;;;;16.91;100.00;100370.59;4976365;28;20210;-82
2023/09/11 05:02:35;;;;;;;0.00;0.00;;;;;;;16.94;100.00;100369.09;4974540;28;20182;-82
2023/09/11 05:05:00;;;;;;;0.00;0.00;;;;;;;16.94;100.00;100371.88;4975045;28;20537;-83
2023/09/11 05:07:25;;;;;;;0.00;0.00;;;;;;;16.96;100.00;100369.53;4975036;28;20505;-83
2023/09/11 05:09:51;;;;;;;0.00;0.00;;;;;;;16.84;100.00;100364.09;4974279;28;20178;-83
2023/09/11 05:12:16;;;;;;;0.00;0.00;;;;;;;16.81;100.00;100368.38;4974908;28;20188;-83
2023/09/11 05:14:41;;;;;;;0.00;0.00;;;;;;;16.85;100.00;100377.53;4974112;28;20202;-82
2023/09/11 05:17:07;;;;;;;0.00;0.00;;;;;;;16.87;100.00;100382.72;4976040;28;20181;-82
2023/09/11 05:19:32;;;;;;;0.00;0.00;;;;;;;16.86;100.00;100389.38;4974556;28;20235;-82
2023/09/11 05:21:58;;;;;;;0.13;0.13;;;;;;;16.83;100.00;100390.91;4974372;28;20185;-83
2023/09/11 05:24:23;;;;;;;0.00;0.00;;;;;;;16.88;100.00;100392.59;4974350;28;20678;-82
2023/09/11 05:26:49;;;;;;;0.00;0.00;;;;;;;16.92;100.00;100393.47;4974554;28;20177;-81
2023/09/11 05:29:14;;;;;;;1.80;1.70;;;;;;;17.03;100.00;100400.06;4973900;28;20648;-81
2023/09/11 05:31:39;;;;;;;0.00;0.00;;;;;;;17.09;100.00;100398.66;4975583;28;20193;-83
2023/09/11 05:34:05;;;;;;;0.10;0.10;;;;;;;17.14;100.00;100386.53;4977704;28;20198;-85
2023/09/11 05:36:30;;;;;;;0.00;0.00;;;;;;;17.23;100.00;100393.50;4987149;28;20244;-83
2023/09/11 05:38:56;;;;;;;0.00;0.00;;;;;;;17.27;100.00;100396.34;4982342;28;20189;-84
2023/09/11 05:41:22;;;;;;;0.00;0.00;;;;;;;17.27;100.00;100392.78;4973583;28;20196;-84
2023/09/11 05:43:47;;;;;;;0.00;0.00;;;;;;;17.38;100.00;100402.94;4974215;28;20353;-86
2023/09/11 05:46:13;;;;;;;0.00;0.00;;;;;;;17.46;100.00;100409.41;4971690;28;20212;-84
2023/09/11 05:48:38;;;;;;;0.00;0.00;;;;;;;17.54;100.00;100403.69;4974339;28;20205;-82
2023/09/11 05:51:03;;;;;;;0.50;0.50;;;;;;;17.59;100.00;100399.06;4972663;28;20181;-83
2023/09/11 05:53:29;;;;;;;0.00;0.00;;;;;;;17.66;100.00;100388.16;4972606;28;20241;-82
2023/09/11 05:55:55;;;;;;;0.00;0.00;;;;;;;17.64;100.00;100388.50;4973233;28;20193;-82
2023/09/11 05:58:20;;;;;;;0.23;0.23;;;;;;;17.61;100.00;100383.72;4972683;28;20678;-82
2023/09/11 06:00:46;;;;;;;2.63;1.30;;;;;;;17.61;100.00;100403.06;4974235;28;20190;-80
2023/09/11 06:03:11;;;;;;;0.67;0.67;;;;;;;17.74;100.00;100396.28;4972523;28;20209;-82
2023/09/11 06:05:39;;;;;;;0.00;0.00;;;;;;;17.73;100.00;100397.44;4972843;28;20189;-81
2023/09/11 06:08:05;;;;;;;0.93;0.93;;;;;;;17.86;100.00;100397.31;4972475;28;20224;-84
2023/09/11 06:10:30;;;;;;;0.10;0.10;;;;;;;17.88;100.00;100395.00;4972106;28;20284;-84
2023/09/11 06:12:55;;;;;;;0.00;0.00;;;;;;;17.91;100.00;100397.03;4973071;28;20213;-84
2023/09/11 06:15:21;;;;;;;0.17;0.17;;;;;;;17.95;100.00;100403.44;4972428;28;20188;-81
2023/09/11 06:17:46;;;;;;;0.20;0.20;;;;;;;18.05;100.00;100402.84;4972477;28;20188;-84
2023/09/11 06:20:15;;;;;;;0.20;0.20;;;;;;;18.11;100.00;100406.97;4972051;28;20186;-82
2023/09/11 06:22:40;;;;;;;0.20;0.20;;;;;;;18.20;100.00;100406.72;4972668;28;20182;-83
2023/09/11 06:25:07;;;;;;;0.00;0.00;;;;;;;18.23;100.00;100404.06;4972466;28;20605;-81
2023/09/11 06:27:34;;;;;;;2.03;1.93;;;;;;;18.30;100.00;100403.38;4973425;28;20206;-83
2023/09/11 06:29:59;;;;;;;0.00;0.00;;;;;;;18.27;100.00;100402.16;4972409;28;20182;-80
2023/09/11 06:32:24;;;;;;;0.30;0.30;;;;;;;18.37;100.00;100403.50;4972238;28;20192;-84
2023/09/11 06:34:50;;;;;;;0.00;0.00;;;;;;;18.46;100.00;100406.88;4974079;28;20639;-86
2023/09/11 06:37:15;;;;;;;0.00;0.00;;;;;;;18.51;100.00;100403.00;4972421;28;20189;-85
2023/09/11 06:39:41;;;;;;;0.00;0.00;;;;;;;18.64;100.00;100401.69;4972848;28;20596;-87
2023/09/11 06:42:06;;;;;;;0.00;0.00;;;;;;;18.72;100.00;100400.69;4971824;28;20186;-87
2023/09/11 06:44:31;;;;;;;0.00;0.00;;;;;;;18.84;100.00;100405.25;4972591;28;20197;-83
2023/09/11 06:46:57;;;;;;;0.00;0.00;;;;;;;18.87;100.00;100404.50;4969123;28;20186;-82
2023/09/11 06:49:22;;;;;;;0.00;0.00;;;;;;;19.02;100.00;100414.66;4973062;28;20194;-86
2023/09/11 06:51:48;;;;;;;0.00;0.00;;;;;;;19.14;100.00;100408.94;4972176;28;20647;-85
2023/09/11 06:54:13;;;;;;;0.23;0.23;;;;;;;19.27;100.00;100406.78;4972004;28;20202;-83
2023/09/11 06:56:42;;;;;;;0.00;0.00;;;;;;;19.34;100.00;100401.34;4973146;28;20307;-87
2023/09/11 06:59:07;;;;;;;0.00;0.00;;;;;;;19.52;100.00;100409.91;4971213;28;20178;-85
2023/09/11 07:01:38;;;;;;;0.27;0.27;;;;;;;19.59;100.00;100394.25;4971719;28;20662;-85
2023/09/11 07:04:06;;;;;;;0.13;0.13;;;;;;;19.72;100.00;100389.28;4974051;28;20206;-83
2023/09/11 07:06:31;;;;;;;0.57;0.57;;;;;;;19.81;100.00;100397.31;4975578;28;20237;-84
2023/09/11 07:08:56;;;;;;;0.00;0.00;;;;;;;19.86;100.00;100388.69;4974872;28;20206;-83
2023/09/11 07:11:22;;;;;;;0.10;0.10;;;;;;;20.00;100.00;100396.41;4975350;28;20188;-84
2023/09/11 07:13:48;;;;;;;1.50;1.40;;;;;;;20.12;100.00;100390.59;4974960;28;20206;-83
2023/09/11 07:16:13;;;;;;;1.20;1.20;;;;;;;20.20;99.12;100386.72;4974770;28;20178;-87
2023/09/11 07:18:38;;;;;;;0.00;0.00;;;;;;;20.35;98.47;100388.50;4975794;28;20288;-84
2023/09/11 07:21:04;;;;;;;0.40;0.40;;;;;;;20.40;97.95;100384.59;4975712;28;20180;-86
2023/09/11 07:23:29;;;;;;;0.00;0.00;;;;;;;20.48;97.58;100387.09;4976242;28;20548;-86
2023/09/11 07:25:55;;;;;;;0.73;0.53;;;;;;;20.59;96.77;100380.88;4976707;28;20729;-89
2023/09/11 07:28:24;;;;;;;1.40;1.40;;;;;;;20.74;96.12;100379.81;4975359;28;20357;-85
2023/09/11 07:30:49;;;;;;;0.00;0.00;;;;;;;20.85;95.46;100377.16;4974691;28;20177;-86
2023/09/11 07:33:15;;;;;;;0.00;0.00;;;;;;;20.97;95.15;100374.06;4974671;28;20200;-85
2023/09/11 07:35:40;;;;;;;0.00;0.00;;;;;;;20.99;94.78;100372.53;4976209;28;20187;-85
2023/09/11 07:38:06;;;;;;;0.00;0.00;;;;;;;21.07;94.71;100371.41;4975363;28;20225;-85
2023/09/11 07:40:31;;;;;;;0.10;0.10;;;;;;;21.13;94.10;100369.06;4975463;28;20182;-85
2023/09/11 07:42:57;;;;;;;0.67;0.47;;;;;;;21.25;93.47;100373.53;4974750;28;20215;-86
2023/09/11 07:45:22;;;;;;;0.03;0.03;;;;;;;21.42;92.96;100369.31;4974369;28;20239;-85
2023/09/11 07:47:47;;;;;;;0.83;0.83;;;;;;;21.33;92.39;100355.75;4974292;28;20205;-86
2023/09/11 07:50:13;;;;;;;0.27;0.27;;;;;;;21.43;92.26;100362.56;4974125;28;20174;-83
2023/09/11 07:52:38;;;;;;;1.73;1.60;;;;;;;;;;4974077;28;20221;-83
2023/09/11 07:55:04;;;;;;;0.00;0.00;;;;;;;21.59;91.83;100363.88;4975507;28;20637;-84
2023/09/11 07:57:30;;;;;;;0.77;0.77;;;;;;;21.54;91.84;100352.28;4974026;28;20588;-84
2023/09/11 07:59:56;;;;;;;0.00;0.00;;;;;;;21.73;91.74;100354.00;4965837;28;20178;-84
2023/09/11 08:02:21;;;;;;;5.17;3.10;;;;;;;21.83;91.05;100356.03;4974454;28;20546;-81
2023/09/11 08:04:47;;;;;;;0.00;0.00;;;;;;;21.94;89.94;100349.34;4976381;28;20228;-81
2023/09/11 08:07:12;;;;;;;0.00;0.00;;;;;;;22.12;88.82;100351.41;4975725;28;20658;-81
2023/09/11 08:09:37;;;;;;;0.00;0.00;;;;;;;22.29;88.36;100353.50;4975053;28;20209;-83
2023/09/11 08:12:03;;;;;;;0.00;0.00;;;;;;;22.41;87.97;100349.53;4994469;22;20313;-77
2023/09/11 08:14:28;;;;;;;0.00;0.00;;;;;;;22.50;88.08;100349.94;4974508;28;20630;-78
2023/09/11 08:16:54;;;;;;;0.00;0.00;;;;;;;22.64;89.78;100355.56;4975183;28;20218;-80
2023/09/11 08:19:19;;;;;;;0.00;0.00;;;;;;;22.71;90.85;100358.34;4976052;28;20217;-80
2023/09/11 08:21:45;;;;;;;0.00;0.00;;;;;;;22.74;89.97;100357.56;4976390;28;20208;-80
2023/09/11 08:24:11;;;;;;;0.00;0.00;;;;;;;22.92;87.00;100346.44;4975009;28;20203;-80
2023/09/11 08:26:38;;;;;;;0.57;0.57;;;;;;;23.37;84.75;100358.78;4974457;28;20662;-80
2023/09/11 08:29:03;;;;;;;3.40;1.63;;;;;;;23.67;81.60;100363.91;4974795;28;20216;-79
2023/09/11 08:31:29;;;;;;;1.10;1.00;;;;;;;23.87;79.42;100347.53;4976959;28;20185;-79
2023/09/11 08:33:55;;;;;;;1.10;1.10;;;;;;;24.08;79.19;100351.44;4974562;28;20201;-78
2023/09/11 08:36:21;;;;;;;0.47;0.47;;;;;;;24.08;77.12;100327.09;4975018;28;20178;-79
2023/09/11 08:38:47;;;;;;;0.20;0.20;;;;;;;24.19;77.11;100329.84;4989602;28;20276;-80
2023/09/11 08:41:13;;;;;;;0.93;0.93;;;;;;;24.30;77.06;100325.00;4990669;28;20180;-79
2023/09/11 08:43:39;;;;;;;0.97;0.97;;;;;;;24.41;75.91;100328.53;4973898;28;20232;-78
2023/09/11 08:46:06;;;;;;;10.03;3.07;;;;;;;24.53;76.08;100327.28;4974122;28;20189;-78
2023/09/11 08:48:33;;;;;;;20.73;2.93;;;;;;;24.69;74.94;100316.38;4974347;28;20237;-80
2023/09/11 08:51:08;;;;;;;1.90;1.80;;;;;;;24.88;72.15;100317.81;4973727;28;20544;-80
2023/09/11 08:53:36;;;;;;;0.80;0.80;;;;;;;25.02;70.32;100305.75;4973424;28;20216;-80
2023/09/11 08:56:01;;;;;;;0.63;0.63;;;;;;;25.14;69.65;100296.84;4974965;28;20212;-78
2023/09/11 08:58:30;;;;;;;0.80;0.80;;;;;;;25.31;69.73;100290.28;4989464;28;20213;-80
2023/09/11 09:00:56;;;;;;;1.53;1.33;;;;;;;25.46;69.50;100283.34;4974392;28;20273;-78
2023/09/11 09:03:24;;;;;;;12.27;1.80;;;;;;;25.65;67.84;100279.13;4974132;28;20233;-80
2023/09/11 09:05:49;;;;;;;0.93;0.93;;;;;;;25.63;67.42;100275.16;4989380;28;20535;-80
2023/09/11 09:08:15;;;;;;;0.57;0.57;;;;;;;25.67;66.99;100264.72;4973169;28;20260;-80
2023/09/11 09:10:41;;;;;;;1.13;1.10;;;;;;;25.75;66.88;100269.03;4973963;28;20182;-80
2023/09/11 09:13:07;;;;;;;1.03;0.93;;;;;;;25.74;66.49;100264.63;4974144;28;20217;-80
2023/09/11 09:15:35;;;;;;;0.10;0.10;;;;;;;25.82;66.82;100254.16;4974501;28;20197;-79
2023/09/11 09:18:01;;;;;;;0.00;0.00;;;;;;;25.99;67.67;100267.13;4973542;28;20244;-79
2023/09/11 09:20:31;;;;;;;0.67;0.67;;;;;;;26.02;65.49;100250.25;4974084;28;20186;-79
2023/09/11 09:22:58;;;;;;;2.50;2.37;;;;;;;26.03;66.03;100245.44;4972963;28;20667;-80
2023/09/11 09:25:25;;;;;;;5.93;2.70;;;;;;;26.11;64.92;100232.94;4973538;28;20185;-80
2023/09/11 09:27:51;;;;;;;1.83;1.73;;;;;;;26.15;64.28;100232.88;4974253;28;20216;-79
2023/09/11 09:30:21;;;;;;;1.33;1.23;;;;;;;26.36;63.92;100235.41;4973990;28;20273;-80
2023/09/11 09:32:50;;;;;;;10.77;2.10;;;;;;;26.61;64.35;100249.00;4972709;28;20212;-80
2023/09/11 09:35:19;;;;;;;6.00;3.87;;;;;;;26.51;63.46;100231.16;4972698;28;20186;-80
2023/09/11 09:37:55;;;;;;;4.83;4.57;;;;;;;26.54;63.29;100233.09;4973649;28;20592;-79
2023/09/11 09:40:33;;;;;;;0.10;0.10;;;;;;;26.72;64.04;100234.81;4972364;28;20280;-80
2023/09/11 09:42:59;;;;;;;4.90;2.37;;;;;;;26.82;64.27;100231.81;4973813;28;20216;-80
2023/09/11 09:45:43;;;;;;;1.30;1.20;;;;;;;27.02;63.12;100233.91;4972608;28;20192;-80
2023/09/11 09:48:19;;;;;;;0.37;0.37;;;;;;;27.08;61.97;100216.16;4972627;28;20216;-80
2023/09/11 09:50:53;;;;;;;7.10;2.50;;;;;;;27.07;61.83;100213.78;4973645;28;20192;-79
2023/09/11 09:53:32;;;;;;;0.60;0.60;;;;;;;27.02;61.26;100203.84;4973583;28;20208;-80
2023/09/11 09:56:16;;;;;;;4.80;2.33;;;;;;;27.17;61.81;100204.34;4972779;28;20193;-79
2023/09/11 09:58:45;;;;;;;6.80;2.20;;;;;;;27.27;61.60;100201.34;4973483;28;20504;-78
2023/09/11 10:01:13;;;;;;;3.83;2.77;;;;;;;27.26;60.45;100193.38;4973996;28;20192;-80
2023/09/11 10:03:45;;;;;;;2.73;1.93;;;;;;;27.33;60.35;100192.41;4972455;28;20554;-80
2023/09/11 10:06:22;;;;;;;5.60;2.63;;;;;;;27.32;59.84;100188.81;4973888;28;20185;-80
2023/09/11 10:09:04;;;;;;;8.53;2.87;;;;;;;27.35;59.02;100175.97;4971316;28;20209;-79
2023/09/11 10:11:34;;;;;;;2.30;2.20;;;;;;;27.37;60.26;100181.94;4973245;28;20221;-80
2023/09/11 10:14:02;;;;;;;1.13;0.73;;;;;;;27.45;60.52;100181.34;4972154;28;20205;-80
2023/09/11 10:16:30;;;;;;;1.40;1.30;;;;;;;27.64;60.85;100188.19;4973663;28;20202;-80
2023/09/11 10:18:56;;;;;;;1.37;1.20;;;;;;;27.62;60.54;100176.56;4974165;28;20257;-79
2023/09/11 10:21:22;;;;;;;5.53;1.80;;;;;;;27.78;60.93;100181.47;4973323;28;20190;-78
2023/09/11 10:23:47;;;;;;;5.40;2.83;;;;;;;27.83;60.31;100181.75;4972933;28;20239;-80
2023/09/11 10:26:18;;;;;;;6.90;2.57;;;;;;;27.87;59.96;100178.84;4973101;28;20182;-79
2023/09/11 10:28:48;;;;;;;12.57;2.60;;;;;;;27.84;59.72;100174.09;4971271;28;20630;-79
2023/09/11 10:31:23;;;;;;;1.97;1.47;;;;;;;27.92;60.54;100171.91;5014561;22;20231;-81
2023/09/11 10:33:55;;;;;;;2.07;1.97;;;;;;;27.88;59.55;100157.94;5005753;28;20252;-81
2023/09/11 10:36:22;;;;;;;0.37;0.37;;;;;;;27.89;60.85;100156.72;4997740;28;20299;-81
2023/09/11 10:38:48;;;;;;;1.13;1.13;;;;;;;27.77;59.84;100154.59;5005652;28;20185;-79
2023/09/11 10:41:13;;;;;;;0.27;0.27;;;;;;;27.93;60.14;100153.84;4996268;28;20192;-81
2023/09/11 10:43:39;;;;;;;3.33;2.00;;;;;;;27.94;60.63;100156.22;4993961;28;20235;-81
2023/09/11 10:46:32;;;;;;;10.93;3.33;;;;;;;27.78;60.58;100151.38;5007033;28;20712;-82
2023/09/11 10:48:59;;;;;;;1.27;1.23;;;;;;;27.76;61.08;100145.38;4988203;28;20197;-84
2023/09/11 10:51:27;;;;;;;1.60;1.50;;;;;;;27.79;61.02;100143.75;4986164;28;20314;-83
2023/09/11 10:53:52;;;;;;;10.67;3.17;;;;;;;27.81;61.03;100138.47;4988334;28;20293;-83
2023/09/11 10:56:18;;;;;;;2.37;2.23;;;;;;;27.91;60.17;100133.81;4992582;28;20225;-83
2023/09/11 10:58:43;;;;;;;0.40;0.40;;;;;;;28.08;61.36;100146.66;5007733;28;20169;-82
2023/09/11 11:01:13;;;;;;;3.07;2.60;;;;;;;28.23;59.26;100131.03;5002402;28;20177;-83
2023/09/11 11:03:40;;;;;;;2.03;1.73;;;;;;;28.13;59.37;100118.03;4991646;28;20672;-82
2023/09/11 11:06:10;;;;;;;2.07;1.97;;;;;;;28.16;58.60;100122.78;4990204;28;20185;-82
2023/09/11 11:08:38;;;;;;;4.63;1.30;;;;;;;28.28;58.68;100130.53;4996988;28;20190;-82
2023/09/11 11:11:03;;;;;;;0.97;0.97;;;;;;;28.36;59.14;100134.75;5003402;28;20182;-82
2023/09/11 11:13:29;;;;;;;1.60;1.50;;;;;;;28.50;60.13;100135.59;4998758;28;20241;-82
2023/09/11 11:16:17;;;;;;;1.57;1.47;;;;;;;28.73;60.52;100138.97;5001182;28;20656;-85
2023/09/11 11:18:42;;;;;;;5.33;3.13;;;;;;;28.67;58.46;100112.63;4992646;28;20178;-83
2023/09/11 11:21:09;;;;;;;0.30;0.30;;;;;;;28.68;58.79;100113.41;4986389;28;20187;-85